KTUP/TUP METAR and TAF weather

Enter ICAO airport designator
Station Type Date Time Source
KTUP METAR 2019/06/17 05:53 UTC NOAA

KTUP 170553Z AUTO 00000KT 10SM BKN095 BKN120 A2995 RMK AO2 SLPNO 60001 51003 $


Station Type Date Time Source
KTUP Decoded METAR 2019/06/17 05:53 UTC NOAA

TUPELO REGIONAL AIRPORT, MS, United States (KTUP) 34-16N 88-46W 105M
Jun 17, 2019 - 01:53 AM EDT / 2019.06.17 0553 UTC
Wind: Calm:0
Visibility: 10 mile(s):0
Sky conditions: mostly cloudy
Pressure (altimeter): 29.95 in. Hg (1014 hPa)
Pressure tendency: 0.01 inches (0.3 hPa) higher than three hours ago
ob: KTUP 170553Z AUTO 00000KT 10SM BKN095 BKN120 A2995 RMK AO2 SLPNO 60001 51003
cycle: 6

Station Type Date Time Source
KTUP TAF 2019/06/17 06:22 UTC NOAA

TAF KTUP 170520Z 1706/1806 19003KT P6SM BKN250
FM172100 22007KT P6SM VCTS OVC050CB
TEMPO 1802/1806 3SM -TSRA OVC007CB

Example: see airport list